sensor_id;sensor_type;location;lat;lon;timestamp;temperature;humidity
314;DHT22;143;51.634;7.112;2024-01-06T00:00:01;7.40;1.00
314;DHT22;143;51.634;7.112;2024-01-06T00:02:26;7.30;1.00
314;DHT22;143;51.634;7.112;2024-01-06T00:04:52;7.60;1.00
314;DHT22;143;51.634;7.112;2024-01-06T00:07:17;7.70;1.00
314;DHT22;143;51.634;7.112;2024-01-06T00:09:43;7.60;1.00
314;DHT22;143;51.634;7.112;2024-01-06T00:12:09;7.50;1.00
314;DHT22;143;51.634;7.112;2024-01-06T00:14:35;7.60;1.00
314;DHT22;143;51.634;7.112;2024-01-06T00:17:00;7.60;1.00
314;DHT22;143;51.634;7.112;2024-01-06T00:19:26;7.60;1.00
314;DHT22;143;51.634;7.112;2024-01-06T00:21:51;7.60;1.00
314;DHT22;143;51.634;7.112;2024-01-06T00:24:17;7.60;1.00
314;DHT22;143;51.634;7.112;2024-01-06T00:26:42;7.70;1.00
314;DHT22;143;51.634;7.112;2024-01-06T00:29:08;7.60;1.00
314;DHT22;143;51.634;7.112;2024-01-06T00:31:33;7.80;1.00
314;DHT22;143;51.634;7.112;2024-01-06T00:33:59;7.60;1.00
314;DHT22;143;51.634;7.112;2024-01-06T00:36:24;7.50;1.00
314;DHT22;143;51.634;7.112;2024-01-06T00:38:50;7.60;1.00
314;DHT22;143;51.634;7.112;2024-01-06T00:41:15;7.70;1.00
314;DHT22;143;51.634;7.112;2024-01-06T00:43:41;7.70;1.00
314;DHT22;143;51.634;7.112;2024-01-06T00:46:07;7.70;1.00
314;DHT22;143;51.634;7.112;2024-01-06T00:48:33;7.50;1.00
314;DHT22;143;51.634;7.112;2024-01-06T00:50:58;7.40;1.00
314;DHT22;143;51.634;7.112;2024-01-06T00:53:24;7.60;1.00
314;DHT22;143;51.634;7.112;2024-01-06T00:55:49;7.70;1.00
314;DHT22;143;51.634;7.112;2024-01-06T00:58:15;7.90;1.00
314;DHT22;143;51.634;7.112;2024-01-06T01:00:40;7.70;1.00
314;DHT22;143;51.634;7.112;2024-01-06T01:03:06;7.80;1.00
314;DHT22;143;51.634;7.112;2024-01-06T01:05:32;7.70;1.00
314;DHT22;143;51.634;7.112;2024-01-06T01:07:58;7.60;1.00
314;DHT22;143;51.634;7.112;2024-01-06T01:10:23;7.70;1.00
314;DHT22;143;51.634;7.112;2024-01-06T01:12:49;7.90;1.00
314;DHT22;143;51.634;7.112;2024-01-06T01:15:14;7.80;1.00
314;DHT22;143;51.634;7.112;2024-01-06T01:17:39;8.00;1.00
314;DHT22;143;51.634;7.112;2024-01-06T01:20:06;8.00;1.00
314;DHT22;143;51.634;7.112;2024-01-06T01:22:31;8.00;1.00
314;DHT22;143;51.634;7.112;2024-01-06T01:24:57;7.70;1.00
314;DHT22;143;51.634;7.112;2024-01-06T01:27:22;7.90;1.00
314;DHT22;143;51.634;7.112;2024-01-06T01:29:48;7.80;1.00
314;DHT22;143;51.634;7.112;2024-01-06T01:32:18;8.00;1.00
314;DHT22;143;51.634;7.112;2024-01-06T01:34:43;7.80;1.00
314;DHT22;143;51.634;7.112;2024-01-06T01:37:09;7.90;1.00
314;DHT22;143;51.634;7.112;2024-01-06T01:39:34;8.00;1.00
314;DHT22;143;51.634;7.112;2024-01-06T01:42:00;8.00;1.00
314;DHT22;143;51.634;7.112;2024-01-06T01:44:25;8.00;1.00
314;DHT22;143;51.634;7.112;2024-01-06T01:47:04;7.90;1.00
314;DHT22;143;51.634;7.112;2024-01-06T01:49:30;8.20;1.00
314;DHT22;143;51.634;7.112;2024-01-06T01:51:56;8.10;1.00
314;DHT22;143;51.634;7.112;2024-01-06T01:54:21;7.90;1.00
314;DHT22;143;51.634;7.112;2024-01-06T01:56:47;7.80;1.00
314;DHT22;143;51.634;7.112;2024-01-06T01:59:13;8.10;1.00
314;DHT22;143;51.634;7.112;2024-01-06T02:01:42;7.90;1.00
314;DHT22;143;51.634;7.112;2024-01-06T02:04:12;8.10;1.00
314;DHT22;143;51.634;7.112;2024-01-06T02:06:37;7.90;1.00
314;DHT22;143;51.634;7.112;2024-01-06T02:09:03;7.90;1.00
314;DHT22;143;51.634;7.112;2024-01-06T02:11:29;8.20;1.00
314;DHT22;143;51.634;7.112;2024-01-06T02:13:54;8.10;1.00
314;DHT22;143;51.634;7.112;2024-01-06T02:16:20;7.90;1.00
314;DHT22;143;51.634;7.112;2024-01-06T02:18:46;8.20;1.00
314;DHT22;143;51.634;7.112;2024-01-06T02:21:11;8.20;1.00
314;DHT22;143;51.634;7.112;2024-01-06T02:23:37;7.90;1.00
314;DHT22;143;51.634;7.112;2024-01-06T02:26:03;8.00;1.00
314;DHT22;143;51.634;7.112;2024-01-06T02:28:28;8.00;1.00
314;DHT22;143;51.634;7.112;2024-01-06T02:30:54;7.90;1.00
314;DHT22;143;51.634;7.112;2024-01-06T02:33:19;8.00;1.00
314;DHT22;143;51.634;7.112;2024-01-06T02:35:46;8.10;1.00
314;DHT22;143;51.634;7.112;2024-01-06T02:38:11;7.90;1.00
314;DHT22;143;51.634;7.112;2024-01-06T02:40:37;7.80;1.00
314;DHT22;143;51.634;7.112;2024-01-06T02:43:03;7.90;1.00
314;DHT22;143;51.634;7.112;2024-01-06T02:45:28;8.00;1.00
314;DHT22;143;51.634;7.112;2024-01-06T02:47:54;8.00;1.00
314;DHT22;143;51.634;7.112;2024-01-06T02:50:19;8.20;1.00
314;DHT22;143;51.634;7.112;2024-01-06T02:52:45;7.80;1.00
314;DHT22;143;51.634;7.112;2024-01-06T02:55:11;7.90;1.00
314;DHT22;143;51.634;7.112;2024-01-06T02:57:37;7.90;1.00
314;DHT22;143;51.634;7.112;2024-01-06T03:00:03;7.90;1.00
314;DHT22;143;51.634;7.112;2024-01-06T03:02:29;7.80;1.00
314;DHT22;143;51.634;7.112;2024-01-06T03:04:54;8.00;1.00
314;DHT22;143;51.634;7.112;2024-01-06T03:07:20;7.90;1.00
314;DHT22;143;51.634;7.112;2024-01-06T03:09:46;8.10;1.00
314;DHT22;143;51.634;7.112;2024-01-06T03:12:12;7.90;1.00
314;DHT22;143;51.634;7.112;2024-01-06T03:14:38;7.80;1.00
314;DHT22;143;51.634;7.112;2024-01-06T03:17:04;7.90;1.00
314;DHT22;143;51.634;7.112;2024-01-06T03:19:30;8.00;1.00
314;DHT22;143;51.634;7.112;2024-01-06T03:21:55;7.80;1.00
314;DHT22;143;51.634;7.112;2024-01-06T03:24:23;7.60;1.00
314;DHT22;143;51.634;7.112;2024-01-06T03:26:48;7.90;1.00
314;DHT22;143;51.634;7.112;2024-01-06T03:29:14;7.90;1.00
314;DHT22;143;51.634;7.112;2024-01-06T03:31:44;7.70;1.00
314;DHT22;143;51.634;7.112;2024-01-06T03:34:10;7.60;1.00
314;DHT22;143;51.634;7.112;2024-01-06T03:36:37;7.70;1.00
314;DHT22;143;51.634;7.112;2024-01-06T03:39:02;7.60;1.00
314;DHT22;143;51.634;7.112;2024-01-06T03:41:28;7.50;1.00
314;DHT22;143;51.634;7.112;2024-01-06T03:43:53;7.40;1.00
314;DHT22;143;51.634;7.112;2024-01-06T03:46:19;7.60;1.00
314;DHT22;143;51.634;7.112;2024-01-06T03:48:44;7.60;1.00
314;DHT22;143;51.634;7.112;2024-01-06T03:51:12;7.40;1.00
314;DHT22;143;51.634;7.112;2024-01-06T03:53:38;7.50;1.00
314;DHT22;143;51.634;7.112;2024-01-06T03:56:05;7.10;1.00
314;DHT22;143;51.634;7.112;2024-01-06T03:58:31;7.20;1.00
314;DHT22;143;51.634;7.112;2024-01-06T04:00:56;7.50;1.00
314;DHT22;143;51.634;7.112;2024-01-06T04:03:22;7.10;1.00
314;DHT22;143;51.634;7.112;2024-01-06T04:05:47;7.10;1.00
314;DHT22;143;51.634;7.112;2024-01-06T04:08:13;7.30;1.00
314;DHT22;143;51.634;7.112;2024-01-06T04:10:38;7.30;1.00
314;DHT22;143;51.634;7.112;2024-01-06T04:13:07;7.10;1.00
314;DHT22;143;51.634;7.112;2024-01-06T04:15:32;7.20;1.00
314;DHT22;143;51.634;7.112;2024-01-06T04:18:02;7.20;1.00
314;DHT22;143;51.634;7.112;2024-01-06T04:20:28;7.10;1.00
314;DHT22;143;51.634;7.112;2024-01-06T04:22:54;7.20;1.00
314;DHT22;143;51.634;7.112;2024-01-06T04:25:19;7.40;1.00
314;DHT22;143;51.634;7.112;2024-01-06T04:27:46;7.10;1.00
314;DHT22;143;51.634;7.112;2024-01-06T04:30:13;7.50;1.00
314;DHT22;143;51.634;7.112;2024-01-06T04:32:38;7.20;1.00
314;DHT22;143;51.634;7.112;2024-01-06T04:35:04;7.40;1.00
314;DHT22;143;51.634;7.112;2024-01-06T04:37:30;7.30;1.00
314;DHT22;143;51.634;7.112;2024-01-06T04:39:56;7.30;1.00
314;DHT22;143;51.634;7.112;2024-01-06T04:42:22;7.50;1.00
314;DHT22;143;51.634;7.112;2024-01-06T04:44:48;7.40;1.00
314;DHT22;143;51.634;7.112;2024-01-06T04:47:14;7.50;1.00
314;DHT22;143;51.634;7.112;2024-01-06T04:49:39;7.20;1.00
314;DHT22;143;51.634;7.112;2024-01-06T04:52:05;7.50;1.00
314;DHT22;143;51.634;7.112;2024-01-06T04:54:30;7.30;1.00
314;DHT22;143;51.634;7.112;2024-01-06T04:57:00;7.40;1.00
314;DHT22;143;51.634;7.112;2024-01-06T04:59:26;7.40;1.00
314;DHT22;143;51.634;7.112;2024-01-06T05:01:52;7.20;1.00
314;DHT22;143;51.634;7.112;2024-01-06T05:04:18;7.10;1.00
314;DHT22;143;51.634;7.112;2024-01-06T05:06:44;7.10;1.00
314;DHT22;143;51.634;7.112;2024-01-06T05:09:10;7.10;1.00
314;DHT22;143;51.634;7.112;2024-01-06T05:11:35;7.10;1.00
314;DHT22;143;51.634;7.112;2024-01-06T05:14:01;7.00;1.00
314;DHT22;143;51.634;7.112;2024-01-06T05:16:26;7.00;1.00
314;DHT22;143;51.634;7.112;2024-01-06T05:18:53;7.20;1.00
314;DHT22;143;51.634;7.112;2024-01-06T05:21:18;7.10;1.00
314;DHT22;143;51.634;7.112;2024-01-06T05:23:44;7.00;1.00
314;DHT22;143;51.634;7.112;2024-01-06T05:26:10;7.00;1.00
314;DHT22;143;51.634;7.112;2024-01-06T05:28:37;7.10;1.00
314;DHT22;143;51.634;7.112;2024-01-06T05:31:02;6.90;1.00
314;DHT22;143;51.634;7.112;2024-01-06T05:33:28;7.00;1.00
314;DHT22;143;51.634;7.112;2024-01-06T05:35:53;7.00;1.00
314;DHT22;143;51.634;7.112;2024-01-06T05:38:19;7.00;1.00
314;DHT22;143;51.634;7.112;2024-01-06T05:40:44;7.10;1.00
314;DHT22;143;51.634;7.112;2024-01-06T05:43:10;7.20;1.00
314;DHT22;143;51.634;7.112;2024-01-06T05:45:35;7.00;1.00
314;DHT22;143;51.634;7.112;2024-01-06T05:48:03;7.20;1.00
314;DHT22;143;51.634;7.112;2024-01-06T05:50:29;7.00;1.00
314;DHT22;143;51.634;7.112;2024-01-06T05:52:54;7.00;1.00
314;DHT22;143;51.634;7.112;2024-01-06T05:55:21;7.10;1.00
314;DHT22;143;51.634;7.112;2024-01-06T05:57:46;7.00;1.00
314;DHT22;143;51.634;7.112;2024-01-06T06:00:12;7.00;1.00
314;DHT22;143;51.634;7.112;2024-01-06T06:02:39;7.30;1.00
314;DHT22;143;51.634;7.112;2024-01-06T06:05:05;7.00;1.00
314;DHT22;143;51.634;7.112;2024-01-06T06:07:30;7.00;1.00
314;DHT22;143;51.634;7.112;2024-01-06T06:09:56;7.00;1.00
314;DHT22;143;51.634;7.112;2024-01-06T06:12:22;7.10;1.00
314;DHT22;143;51.634;7.112;2024-01-06T06:14:47;7.10;1.00
314;DHT22;143;51.634;7.112;2024-01-06T06:17:13;7.20;1.00
314;DHT22;143;51.634;7.112;2024-01-06T06:19:38;7.10;1.00
314;DHT22;143;51.634;7.112;2024-01-06T06:22:04;7.20;1.00
314;DHT22;143;51.634;7.112;2024-01-06T06:24:29;7.00;1.00
314;DHT22;143;51.634;7.112;2024-01-06T06:26:55;7.20;1.00
314;DHT22;143;51.634;7.112;2024-01-06T06:29:21;7.10;1.00
314;DHT22;143;51.634;7.112;2024-01-06T06:31:46;6.90;1.00
314;DHT22;143;51.634;7.112;2024-01-06T06:34:12;7.10;1.00
314;DHT22;143;51.634;7.112;2024-01-06T06:36:38;6.90;1.00
314;DHT22;143;51.634;7.112;2024-01-06T06:39:03;6.90;1.00
314;DHT22;143;51.634;7.112;2024-01-06T06:41:30;6.90;1.00
314;DHT22;143;51.634;7.112;2024-01-06T06:43:57;7.10;1.00
314;DHT22;143;51.634;7.112;2024-01-06T06:46:23;7.10;1.00
314;DHT22;143;51.634;7.112;2024-01-06T06:48:48;7.00;1.00
314;DHT22;143;51.634;7.112;2024-01-06T06:51:14;6.90;1.00
314;DHT22;143;51.634;7.112;2024-01-06T06:53:39;6.80;1.00
314;DHT22;143;51.634;7.112;2024-01-06T06:56:06;6.90;1.00
314;DHT22;143;51.634;7.112;2024-01-06T06:58:32;6.90;1.00
314;DHT22;143;51.634;7.112;2024-01-06T07:00:58;6.90;1.00
314;DHT22;143;51.634;7.112;2024-01-06T07:03:24;6.90;1.00
314;DHT22;143;51.634;7.112;2024-01-06T07:05:49;6.80;1.00
314;DHT22;143;51.634;7.112;2024-01-06T07:08:15;6.70;1.00
314;DHT22;143;51.634;7.112;2024-01-06T07:10:41;7.10;1.00
314;DHT22;143;51.634;7.112;2024-01-06T07:13:06;6.60;1.00
314;DHT22;143;51.634;7.112;2024-01-06T07:15:32;6.70;1.00
314;DHT22;143;51.634;7.112;2024-01-06T07:17:58;6.80;1.00
314;DHT22;143;51.634;7.112;2024-01-06T07:20:23;6.70;1.00
314;DHT22;143;51.634;7.112;2024-01-06T07:22:49;6.70;1.00
314;DHT22;143;51.634;7.112;2024-01-06T07:25:14;6.80;1.00
314;DHT22;143;51.634;7.112;2024-01-06T07:27:40;6.90;1.00
314;DHT22;143;51.634;7.112;2024-01-06T07:30:06;6.60;1.00
314;DHT22;143;51.634;7.112;2024-01-06T07:32:33;6.70;1.00
314;DHT22;143;51.634;7.112;2024-01-06T07:34:59;6.70;1.00
314;DHT22;143;51.634;7.112;2024-01-06T07:37:24;6.70;1.00
314;DHT22;143;51.634;7.112;2024-01-06T07:39:51;6.80;1.00
314;DHT22;143;51.634;7.112;2024-01-06T07:42:16;6.50;1.00
314;DHT22;143;51.634;7.112;2024-01-06T07:44:42;6.80;1.00
314;DHT22;143;51.634;7.112;2024-01-06T07:47:07;6.50;1.00
314;DHT22;143;51.634;7.112;2024-01-06T07:49:33;6.70;1.00
314;DHT22;143;51.634;7.112;2024-01-06T07:51:58;6.70;1.00
314;DHT22;143;51.634;7.112;2024-01-06T07:54:24;6.70;1.00
314;DHT22;143;51.634;7.112;2024-01-06T07:56:49;6.70;1.00
314;DHT22;143;51.634;7.112;2024-01-06T07:59:15;6.70;1.00
314;DHT22;143;51.634;7.112;2024-01-06T08:01:40;6.90;1.00
314;DHT22;143;51.634;7.112;2024-01-06T08:04:08;6.70;1.00
314;DHT22;143;51.634;7.112;2024-01-06T08:06:34;6.60;1.00
314;DHT22;143;51.634;7.112;2024-01-06T08:09:00;6.60;1.00
314;DHT22;143;51.634;7.112;2024-01-06T08:11:25;6.60;1.00
314;DHT22;143;51.634;7.112;2024-01-06T08:13:51;6.60;1.00
314;DHT22;143;51.634;7.112;2024-01-06T08:16:16;6.40;1.00
314;DHT22;143;51.634;7.112;2024-01-06T08:18:42;6.60;1.00
314;DHT22;143;51.634;7.112;2024-01-06T08:21:07;6.60;1.00
314;DHT22;143;51.634;7.112;2024-01-06T08:23:33;6.50;1.00
314;DHT22;143;51.634;7.112;2024-01-06T08:25:59;6.30;1.00
314;DHT22;143;51.634;7.112;2024-01-06T08:28:24;6.70;1.00
314;DHT22;143;51.634;7.112;2024-01-06T08:30:50;6.40;1.00
314;DHT22;143;51.634;7.112;2024-01-06T08:33:16;6.40;1.00
314;DHT22;143;51.634;7.112;2024-01-06T08:35:43;6.50;1.00
314;DHT22;143;51.634;7.112;2024-01-06T08:38:09;6.40;1.00
314;DHT22;143;51.634;7.112;2024-01-06T08:40:35;6.60;1.00
314;DHT22;143;51.634;7.112;2024-01-06T08:43:01;6.60;1.00
314;DHT22;143;51.634;7.112;2024-01-06T08:45:26;6.50;1.00
314;DHT22;143;51.634;7.112;2024-01-06T08:47:52;6.50;1.00
314;DHT22;143;51.634;7.112;2024-01-06T08:50:18;6.30;1.00
314;DHT22;143;51.634;7.112;2024-01-06T08:52:43;6.60;1.00
314;DHT22;143;51.634;7.112;2024-01-06T08:55:09;6.60;1.00
314;DHT22;143;51.634;7.112;2024-01-06T08:57:34;6.60;1.00
314;DHT22;143;51.634;7.112;2024-01-06T09:00:00;6.60;1.00
314;DHT22;143;51.634;7.112;2024-01-06T09:02:25;6.60;1.00
314;DHT22;143;51.634;7.112;2024-01-06T09:04:51;6.60;1.00
314;DHT22;143;51.634;7.112;2024-01-06T09:07:16;6.50;1.00
314;DHT22;143;51.634;7.112;2024-01-06T09:09:43;6.40;1.00
314;DHT22;143;51.634;7.112;2024-01-06T09:12:09;6.60;1.00
314;DHT22;143;51.634;7.112;2024-01-06T09:14:34;6.50;1.00
314;DHT22;143;51.634;7.112;2024-01-06T09:17:00;6.30;1.00
314;DHT22;143;51.634;7.112;2024-01-06T09:19:25;6.70;1.00
314;DHT22;143;51.634;7.112;2024-01-06T09:21:53;6.60;1.00
314;DHT22;143;51.634;7.112;2024-01-06T09:24:20;6.60;1.00
314;DHT22;143;51.634;7.112;2024-01-06T09:26:45;6.60;1.00
314;DHT22;143;51.634;7.112;2024-01-06T09:29:11;6.50;1.00
314;DHT22;143;51.634;7.112;2024-01-06T09:31:37;6.50;1.00
314;DHT22;143;51.634;7.112;2024-01-06T09:34:02;6.50;1.00
314;DHT22;143;51.634;7.112;2024-01-06T09:36:30;6.60;1.00
314;DHT22;143;51.634;7.112;2024-01-06T09:38:56;6.60;1.00
314;DHT22;143;51.634;7.112;2024-01-06T09:41:21;6.30;1.00
314;DHT22;143;51.634;7.112;2024-01-06T09:43:47;6.60;1.00
314;DHT22;143;51.634;7.112;2024-01-06T09:46:27;6.40;1.00
314;DHT22;143;51.634;7.112;2024-01-06T09:48:54;6.60;1.00
314;DHT22;143;51.634;7.112;2024-01-06T09:51:20;6.40;1.00
314;DHT22;143;51.634;7.112;2024-01-06T09:53:57;6.30;1.00
314;DHT22;143;51.634;7.112;2024-01-06T09:56:25;6.60;1.00
314;DHT22;143;51.634;7.112;2024-01-06T09:58:51;6.30;1.00
314;DHT22;143;51.634;7.112;2024-01-06T10:01:18;6.30;1.00
314;DHT22;143;51.634;7.112;2024-01-06T10:03:43;6.40;1.00
314;DHT22;143;51.634;7.112;2024-01-06T10:06:11;6.30;1.00
314;DHT22;143;51.634;7.112;2024-01-06T10:08:37;6.30;1.00
314;DHT22;143;51.634;7.112;2024-01-06T10:11:06;6.30;1.00
314;DHT22;143;51.634;7.112;2024-01-06T10:13:32;6.30;1.00
314;DHT22;143;51.634;7.112;2024-01-06T10:15:58;6.30;1.00
314;DHT22;143;51.634;7.112;2024-01-06T10:18:25;6.40;1.00
314;DHT22;143;51.634;7.112;2024-01-06T10:20:51;6.30;1.00
314;DHT22;143;51.634;7.112;2024-01-06T10:23:16;6.30;1.00
314;DHT22;143;51.634;7.112;2024-01-06T10:25:42;6.30;1.00
314;DHT22;143;51.634;7.112;2024-01-06T10:28:11;6.40;1.00
314;DHT22;143;51.634;7.112;2024-01-06T10:30:37;6.30;1.00
314;DHT22;143;51.634;7.112;2024-01-06T10:33:10;6.30;1.00
314;DHT22;143;51.634;7.112;2024-01-06T10:35:37;6.30;1.00
314;DHT22;143;51.634;7.112;2024-01-06T10:38:03;6.30;1.00
314;DHT22;143;51.634;7.112;2024-01-06T10:40:29;6.30;1.00
314;DHT22;143;51.634;7.112;2024-01-06T10:42:55;6.30;1.00
314;DHT22;143;51.634;7.112;2024-01-06T10:45:23;6.10;1.00
314;DHT22;143;51.634;7.112;2024-01-06T10:47:49;6.40;1.00
314;DHT22;143;51.634;7.112;2024-01-06T10:50:17;6.30;1.00
314;DHT22;143;51.634;7.112;2024-01-06T10:52:43;6.10;1.00
314;DHT22;143;51.634;7.112;2024-01-06T10:55:09;6.30;1.00
314;DHT22;143;51.634;7.112;2024-01-06T10:57:37;6.40;1.00
314;DHT22;143;51.634;7.112;2024-01-06T11:00:03;6.30;1.00
314;DHT22;143;51.634;7.112;2024-01-06T11:02:31;6.30;1.00
314;DHT22;143;51.634;7.112;2024-01-06T11:04:57;6.00;1.00
314;DHT22;143;51.634;7.112;2024-01-06T11:07:25;6.10;1.00
314;DHT22;143;51.634;7.112;2024-01-06T11:09:55;6.30;1.00
314;DHT22;143;51.634;7.112;2024-01-06T11:12:21;5.90;1.00
314;DHT22;143;51.634;7.112;2024-01-06T11:14:47;6.20;1.00
314;DHT22;143;51.634;7.112;2024-01-06T11:17:13;6.00;1.00
314;DHT22;143;51.634;7.112;2024-01-06T11:20:06;6.30;1.00
314;DHT22;143;51.634;7.112;2024-01-06T11:22:31;6.30;1.00
314;DHT22;143;51.634;7.112;2024-01-06T11:25:08;5.90;1.00
314;DHT22;143;51.634;7.112;2024-01-06T11:27:36;6.10;1.00
314;DHT22;143;51.634;7.112;2024-01-06T11:30:03;6.10;1.00
314;DHT22;143;51.634;7.112;2024-01-06T11:32:33;6.10;1.00
314;DHT22;143;51.634;7.112;2024-01-06T11:35:09;5.90;1.00
314;DHT22;143;51.634;7.112;2024-01-06T11:40:10;5.80;1.00
314;DHT22;143;51.634;7.112;2024-01-06T11:42:41;6.00;1.00
314;DHT22;143;51.634;7.112;2024-01-06T11:45:07;6.10;1.00
314;DHT22;143;51.634;7.112;2024-01-06T11:47:33;6.10;1.00
314;DHT22;143;51.634;7.112;2024-01-06T11:50:00;5.80;1.00
314;DHT22;143;51.634;7.112;2024-01-06T11:52:27;6.00;1.00
314;DHT22;143;51.634;7.112;2024-01-06T11:54:56;6.10;1.00
314;DHT22;143;51.634;7.112;2024-01-06T11:57:21;5.90;1.00
314;DHT22;143;51.634;7.112;2024-01-06T11:59:48;6.10;1.00
314;DHT22;143;51.634;7.112;2024-01-06T12:02:14;6.20;1.00
314;DHT22;143;51.634;7.112;2024-01-06T12:04:40;6.20;1.00
314;DHT22;143;51.634;7.112;2024-01-06T12:07:08;6.00;1.00
314;DHT22;143;51.634;7.112;2024-01-06T12:09:34;5.80;1.00
314;DHT22;143;51.634;7.112;2024-01-06T12:12:04;6.00;1.00
314;DHT22;143;51.634;7.112;2024-01-06T12:14:34;6.10;1.00
314;DHT22;143;51.634;7.112;2024-01-06T12:17:00;6.20;1.00
314;DHT22;143;51.634;7.112;2024-01-06T12:19:32;5.80;1.00
314;DHT22;143;51.634;7.112;2024-01-06T12:21:58;6.00;1.00
314;DHT22;143;51.634;7.112;2024-01-06T12:24:24;6.10;1.00
314;DHT22;143;51.634;7.112;2024-01-06T12:26:52;6.00;1.00
314;DHT22;143;51.634;7.112;2024-01-06T12:29:18;5.60;1.00
314;DHT22;143;51.634;7.112;2024-01-06T12:31:45;5.90;1.00
314;DHT22;143;51.634;7.112;2024-01-06T12:34:11;5.60;1.00
314;DHT22;143;51.634;7.112;2024-01-06T12:36:38;5.80;1.00
314;DHT22;143;51.634;7.112;2024-01-06T12:39:04;5.60;1.00
314;DHT22;143;51.634;7.112;2024-01-06T12:41:30;5.70;1.00
314;DHT22;143;51.634;7.112;2024-01-06T12:43:59;5.70;1.00
314;DHT22;143;51.634;7.112;2024-01-06T12:46:24;5.60;1.00
314;DHT22;143;51.634;7.112;2024-01-06T12:48:50;5.60;1.00
314;DHT22;143;51.634;7.112;2024-01-06T12:51:15;5.50;1.00
314;DHT22;143;51.634;7.112;2024-01-06T12:53:41;5.80;1.00
314;DHT22;143;51.634;7.112;2024-01-06T12:56:07;5.50;1.00
314;DHT22;143;51.634;7.112;2024-01-06T12:58:32;5.60;1.00
314;DHT22;143;51.634;7.112;2024-01-06T13:00:59;5.50;1.00
314;DHT22;143;51.634;7.112;2024-01-06T13:03:24;5.60;1.00
314;DHT22;143;51.634;7.112;2024-01-06T13:05:50;5.40;1.00
314;DHT22;143;51.634;7.112;2024-01-06T13:08:15;5.60;1.00
314;DHT22;143;51.634;7.112;2024-01-06T13:10:41;5.50;1.00
314;DHT22;143;51.634;7.112;2024-01-06T13:13:06;5.50;1.00
314;DHT22;143;51.634;7.112;2024-01-06T13:15:32;5.80;1.00
314;DHT22;143;51.634;7.112;2024-01-06T13:17:58;5.40;1.00
314;DHT22;143;51.634;7.112;2024-01-06T13:20:23;5.50;1.00
314;DHT22;143;51.634;7.112;2024-01-06T13:22:49;5.60;1.00
314;DHT22;143;51.634;7.112;2024-01-06T13:25:17;5.50;1.00
314;DHT22;143;51.634;7.112;2024-01-06T13:27:42;5.50;1.00
314;DHT22;143;51.634;7.112;2024-01-06T13:30:08;5.60;1.00
314;DHT22;143;51.634;7.112;2024-01-06T13:32:34;5.50;1.00
314;DHT22;143;51.634;7.112;2024-01-06T13:35:00;5.70;1.00
314;DHT22;143;51.634;7.112;2024-01-06T13:37:31;5.80;1.00
314;DHT22;143;51.634;7.112;2024-01-06T13:39:56;5.60;1.00
314;DHT22;143;51.634;7.112;2024-01-06T13:42:22;5.30;1.00
314;DHT22;143;51.634;7.112;2024-01-06T13:44:48;5.50;1.00
314;DHT22;143;51.634;7.112;2024-01-06T13:47:14;5.70;1.00
314;DHT22;143;51.634;7.112;2024-01-06T13:49:39;5.70;1.00
314;DHT22;143;51.634;7.112;2024-01-06T13:52:05;5.60;1.00
314;DHT22;143;51.634;7.112;2024-01-06T13:54:33;5.50;1.00
314;DHT22;143;51.634;7.112;2024-01-06T13:56:59;5.50;1.00
314;DHT22;143;51.634;7.112;2024-01-06T13:59:24;5.60;1.00
314;DHT22;143;51.634;7.112;2024-01-06T14:01:50;5.50;1.00
314;DHT22;143;51.634;7.112;2024-01-06T14:04:16;5.60;1.00
314;DHT22;143;51.634;7.112;2024-01-06T14:06:42;5.70;1.00
314;DHT22;143;51.634;7.112;2024-01-06T14:09:08;5.70;1.00
314;DHT22;143;51.634;7.112;2024-01-06T14:11:33;5.70;1.00
314;DHT22;143;51.634;7.112;2024-01-06T14:14:00;5.70;1.00
314;DHT22;143;51.634;7.112;2024-01-06T14:16:26;5.70;1.00
314;DHT22;143;51.634;7.112;2024-01-06T14:18:51;5.60;1.00
314;DHT22;143;51.634;7.112;2024-01-06T14:21:17;5.40;1.00
314;DHT22;143;51.634;7.112;2024-01-06T14:23:45;5.40;1.00
314;DHT22;143;51.634;7.112;2024-01-06T14:26:11;5.50;1.00
314;DHT22;143;51.634;7.112;2024-01-06T14:28:36;5.40;1.00
314;DHT22;143;51.634;7.112;2024-01-06T14:31:02;5.20;1.00
314;DHT22;143;51.634;7.112;2024-01-06T14:33:28;5.60;1.00
314;DHT22;143;51.634;7.112;2024-01-06T14:35:53;5.30;1.00
314;DHT22;143;51.634;7.112;2024-01-06T14:38:19;5.30;1.00
314;DHT22;143;51.634;7.112;2024-01-06T14:40:45;5.30;1.00
314;DHT22;143;51.634;7.112;2024-01-06T14:43:10;5.20;1.00
314;DHT22;143;51.634;7.112;2024-01-06T14:45:36;5.30;1.00
314;DHT22;143;51.634;7.112;2024-01-06T14:48:02;5.30;1.00
314;DHT22;143;51.634;7.112;2024-01-06T14:50:27;5.20;1.00
314;DHT22;143;51.634;7.112;2024-01-06T14:52:53;5.20;1.00
314;DHT22;143;51.634;7.112;2024-01-06T14:55:18;5.20;1.00
314;DHT22;143;51.634;7.112;2024-01-06T14:57:44;5.20;1.00
314;DHT22;143;51.634;7.112;2024-01-06T15:00:10;5.20;1.00
314;DHT22;143;51.634;7.112;2024-01-06T15:02:39;5.30;1.00
314;DHT22;143;51.634;7.112;2024-01-06T15:05:05;5.10;1.00
314;DHT22;143;51.634;7.112;2024-01-06T15:07:32;5.10;1.00
314;DHT22;143;51.634;7.112;2024-01-06T15:09:59;5.00;1.00
314;DHT22;143;51.634;7.112;2024-01-06T15:12:25;5.10;1.00
314;DHT22;143;51.634;7.112;2024-01-06T15:14:52;5.00;1.00
314;DHT22;143;51.634;7.112;2024-01-06T15:17:17;5.10;1.00
314;DHT22;143;51.634;7.112;2024-01-06T15:19:44;4.90;1.00
314;DHT22;143;51.634;7.112;2024-01-06T15:22:10;5.00;1.00
314;DHT22;143;51.634;7.112;2024-01-06T15:24:35;5.10;1.00
314;DHT22;143;51.634;7.112;2024-01-06T15:27:01;5.10;1.00
314;DHT22;143;51.634;7.112;2024-01-06T15:29:27;5.00;1.00
314;DHT22;143;51.634;7.112;2024-01-06T15:31:52;5.10;1.00
314;DHT22;143;51.634;7.112;2024-01-06T15:34:22;5.20;1.00
314;DHT22;143;51.634;7.112;2024-01-06T15:36:48;5.20;1.00
314;DHT22;143;51.634;7.112;2024-01-06T15:39:14;5.30;1.00
314;DHT22;143;51.634;7.112;2024-01-06T15:41:40;5.30;1.00
314;DHT22;143;51.634;7.112;2024-01-06T15:44:06;5.30;1.00
314;DHT22;143;51.634;7.112;2024-01-06T15:46:31;5.30;1.00
314;DHT22;143;51.634;7.112;2024-01-06T15:48:57;5.30;1.00
314;DHT22;143;51.634;7.112;2024-01-06T15:51:23;5.20;1.00
314;DHT22;143;51.634;7.112;2024-01-06T15:53:49;5.20;1.00
314;DHT22;143;51.634;7.112;2024-01-06T15:56:15;5.30;1.00
314;DHT22;143;51.634;7.112;2024-01-06T15:58:40;5.30;1.00
314;DHT22;143;51.634;7.112;2024-01-06T16:01:06;5.30;1.00
314;DHT22;143;51.634;7.112;2024-01-06T16:03:32;5.10;1.00
314;DHT22;143;51.634;7.112;2024-01-06T16:05:57;5.40;1.00
314;DHT22;143;51.634;7.112;2024-01-06T16:08:23;5.10;1.00
314;DHT22;143;51.634;7.112;2024-01-06T16:10:49;5.00;1.00
314;DHT22;143;51.634;7.112;2024-01-06T16:13:15;5.20;1.00
314;DHT22;143;51.634;7.112;2024-01-06T16:15:41;5.30;1.00
314;DHT22;143;51.634;7.112;2024-01-06T16:18:07;5.00;1.00
314;DHT22;143;51.634;7.112;2024-01-06T16:20:33;5.20;1.00
314;DHT22;143;51.634;7.112;2024-01-06T16:22:58;5.20;1.00
314;DHT22;143;51.634;7.112;2024-01-06T16:25:24;5.20;1.00
314;DHT22;143;51.634;7.112;2024-01-06T16:27:50;5.30;1.00
314;DHT22;143;51.634;7.112;2024-01-06T16:30:16;5.20;1.00
314;DHT22;143;51.634;7.112;2024-01-06T16:32:41;5.30;1.00
314;DHT22;143;51.634;7.112;2024-01-06T16:35:07;5.20;1.00
314;DHT22;143;51.634;7.112;2024-01-06T16:37:34;5.30;1.00
314;DHT22;143;51.634;7.112;2024-01-06T16:39:59;5.30;1.00
314;DHT22;143;51.634;7.112;2024-01-06T16:42:25;5.20;1.00
314;DHT22;143;51.634;7.112;2024-01-06T16:44:50;5.20;1.00
314;DHT22;143;51.634;7.112;2024-01-06T16:47:16;5.30;1.00
314;DHT22;143;51.634;7.112;2024-01-06T16:49:41;5.30;1.00
314;DHT22;143;51.634;7.112;2024-01-06T16:52:07;5.30;1.00
314;DHT22;143;51.634;7.112;2024-01-06T16:54:32;5.30;1.00
314;DHT22;143;51.634;7.112;2024-01-06T16:56:58;5.30;1.00
314;DHT22;143;51.634;7.112;2024-01-06T16:59:28;5.20;1.00
314;DHT22;143;51.634;7.112;2024-01-06T17:01:53;5.30;1.00